Time;durP1;ratioP1;P1;durP2;ratioP2;P2;SDS_P1;SDS_P2;PMS_P1;PMS_P2;Temp;Humidity;BMP_temperature;BMP_pressure;BME280_temperature;BME280_humidity;BME280_pressure;Samples;Min_cycle;Max_cycle;Signal;HPM_P1;HPM_P2
2023/01/13 00:01:08;;;;;;;;;0.00;0.00;;;;;12.71;81.53;100665.44;5061725;28;45245;-75
2023/01/13 00:03:34;;;;;;;;;1.00;1.00;;;;;12.76;81.54;100664.94;5061760;28;45460;-74
2023/01/13 00:05:59;;;;;;;;;0.00;0.00;;;;;12.56;81.46;100623.50;5080908;28;45508;-74
2023/01/13 00:08:25;;;;;;;;;1.00;1.00;;;;;12.62;82.01;100642.41;5062116;28;47633;-74
2023/01/13 00:10:50;;;;;;;;;2.00;2.00;;;;;12.84;81.78;100689.00;5080540;28;45438;-73
2023/01/13 00:13:16;;;;;;;;;1.00;0.67;;;;;12.76;81.37;100679.13;5080826;28;45553;-76
2023/01/13 00:15:42;;;;;;;;;2.67;1.00;;;;;12.16;81.66;100579.66;5081384;28;45213;-74
2023/01/13 00:18:07;;;;;;;;;0.00;0.00;;;;;12.08;80.16;100551.13;5061871;28;46533;-77
2023/01/13 00:20:32;;;;;;;;;0.67;0.67;;;;;12.95;79.52;100688.69;5060648;28;45258;-75
2023/01/13 00:22:58;;;;;;;;;0.00;0.00;;;;;12.97;78.92;100686.72;5060558;28;45264;-75
2023/01/13 00:25:24;;;;;;;;;1.00;0.00;;;;;12.78;78.59;100660.28;5060855;28;45510;-75
2023/01/13 00:27:49;;;;;;;;;0.00;0.00;;;;;12.78;78.21;100649.59;5060088;28;46627;-76
2023/01/13 00:30:15;;;;;;;;;0.00;0.00;;;;;12.66;77.48;100654.41;5042270;28;45449;-76
2023/01/13 00:32:40;;;;;;;;;0.00;0.00;;;;;12.94;76.62;100684.38;5060589;28;45473;-75
2023/01/13 00:35:06;;;;;;;;;0.00;0.00;;;;;12.49;76.70;100610.81;5042211;28;45398;-75
2023/01/13 00:37:35;;;;;;;;;1.00;0.00;;;;;12.72;76.51;100660.94;5059983;28;46085;-75
2023/01/13 00:40:00;;;;;;;;;0.00;0.00;;;;;12.44;75.92;100599.81;5060272;28;45328;-75
2023/01/13 00:45:10;;;;;;;;;0.67;0.00;;;;;12.23;74.81;100567.38;5061326;28;45455;-74
2023/01/13 00:47:35;;;;;;;;;0.00;0.00;;;;;12.67;74.02;100655.25;5060082;28;45475;-73
2023/01/13 00:50:00;;;;;;;;;1.00;0.00;;;;;12.58;73.47;100643.69;5059717;28;45524;-75
2023/01/13 00:52:26;;;;;;;;;2.00;1.00;;;;;12.57;73.22;100630.50;5041929;28;45371;-75
2023/01/13 00:54:51;;;;;;;;;1.00;1.00;;;;;12.26;73.65;100577.72;5041852;28;48947;-75
2023/01/13 00:57:17;;;;;;;;;0.00;0.00;;;;;12.08;73.64;100534.31;5041782;28;47812;-73
2023/01/13 00:59:43;;;;;;;;;0.00;0.00;;;;;11.87;73.36;100521.38;5041684;28;45271;-74
2023/01/13 01:02:08;;;;;;;;;0.67;0.67;;;;;12.86;73.27;100665.66;5040772;28;45231;-74
2023/01/13 01:04:33;;;;;;;;;0.00;0.00;;;;;12.82;72.85;100664.31;5060075;28;45294;-73
2023/01/13 01:06:59;;;;;;;;;0.00;0.00;;;;;12.67;72.74;100656.09;5059412;28;45569;-74
2023/01/13 01:09:31;;;;;;;;;0.00;0.00;;;;;12.68;72.93;100671.09;5059342;28;52278;-75
2023/01/13 01:11:57;;;;;;;;;2.00;0.33;;;;;12.67;73.00;100668.59;5058318;28;45443;-74
2023/01/13 01:14:23;;;;;;;;;0.00;0.00;;;;;12.55;73.00;100661.84;5059576;28;45285;-73
2023/01/13 01:16:48;;;;;;;;;0.00;0.00;;;;;12.50;72.74;100667.66;5058926;28;45669;-74
2023/01/13 01:19:13;;;;;;;;;0.00;0.00;;;;;12.28;72.41;100621.03;5059324;28;45343;-74
2023/01/13 01:21:39;;;;;;;;;0.00;0.00;;;;;12.55;72.55;100670.69;5059411;28;48484;-74
2023/01/13 01:24:04;;;;;;;;;0.00;0.00;;;;;11.76;72.18;100530.44;5059576;28;45195;-74
2023/01/13 01:26:30;;;;;;;;;0.00;0.00;;;;;12.02;71.96;100566.94;5059257;28;46808;-74
2023/01/13 01:28:56;;;;;;;;;1.00;0.00;;;;;12.64;72.39;100664.41;5059057;28;45458;-75
2023/01/13 01:31:23;;;;;;;;;0.33;0.33;;;;;12.63;71.55;100669.91;5059449;28;45268;-77
2023/01/13 01:33:49;;;;;;;;;0.00;0.00;;;;;11.93;71.90;100562.53;5059701;28;45316;-74
2023/01/13 01:36:17;;;;;;;;;0.00;0.00;;;;;12.07;71.59;100577.94;5059471;28;46472;-73
2023/01/13 01:38:43;;;;;;;;;0.00;0.00;;;;;12.46;71.45;100628.97;5041189;28;45298;-76
2023/01/13 01:41:23;;;;;;;;;0.00;0.00;;;;;11.65;71.10;100505.91;5058999;28;45297;-75
2023/01/13 01:44:01;;;;;;;;;0.67;0.67;;;;;12.59;70.79;100663.19;5059309;28;45409;-74
2023/01/13 01:46:29;;;;;;;;;0.00;0.00;;;;;12.61;70.76;100671.84;5040936;28;48237;-72
2023/01/13 01:49:00;;;;;;;;;1.00;0.00;;;;;12.42;70.93;100627.63;5059118;28;45248;-74
2023/01/13 01:51:29;;;;;;;;;0.00;0.00;;;;;12.65;70.75;100665.25;5059068;28;45331;-74
2023/01/13 01:53:56;;;;;;;;;0.00;0.00;;;;;12.48;70.11;100633.16;5060218;28;45400;-74
2023/01/13 01:56:21;;;;;;;;;1.67;0.33;;;;;11.74;69.17;100516.44;5040907;28;47827;-74
2023/01/13 01:58:50;;;;;;;;;1.00;1.00;;;;;12.38;69.63;100643.06;5041719;28;45416;-73
2023/01/13 02:01:16;;;;;;;;;0.00;0.00;;;;;12.39;69.73;100643.91;5063887;28;45340;-73
2023/01/13 02:03:49;;;;;;;;;1.00;0.00;;;;;12.36;69.75;100653.06;5061770;28;45293;-76
2023/01/13 02:06:15;;;;;;;;;0.00;0.00;;;;;11.96;69.69;100592.34;5059042;28;46402;-74
2023/01/13 02:08:40;;;;;;;;;1.00;1.00;;;;;12.49;69.21;100676.66;5040512;28;45576;-75
2023/01/13 02:12:28;;;;;;;;;1.00;0.00;;;;;12.40;69.35;100673.09;5058564;28;45312;-74
2023/01/13 02:13:51;;;;;;;;;3.00;0.00;;;;;12.15;69.26;100648.09;5058316;28;45404;-75
2023/01/13 02:16:22;;;;;;;;;0.00;0.00;;;;;11.58;68.73;100558.91;5058239;28;46434;-73
2023/01/13 02:19:35;;;;;;;;;1.00;1.00;;;;;12.40;69.31;100689.06;5058415;28;45554;-74
2023/01/13 02:22:17;;;;;;;;;0.33;0.33;;;;;12.44;69.36;100692.28;4977089;28;45318;-74
2023/01/13 02:25:05;;;;;;;;;2.00;0.00;;;;;11.84;69.01;100596.28;5060036;28;45482;-74
2023/01/13 02:28:26;;;;;;;;;1.00;0.00;;;;;12.46;69.31;100698.31;5040673;28;48719;-73
2023/01/13 02:34:15;;;;;;;;;0.33;0.33;;;;;12.17;69.55;100677.25;5059620;28;45295;-72
2023/01/13 02:36:59;;;;;;;;;1.00;0.00;;;;;11.99;69.33;100655.16;5058610;28;45468;-75
2023/01/13 02:39:42;;;;;;;;;1.00;0.00;;;;;12.21;69.47;100699.09;5040015;28;45525;-74
2023/01/13 02:45:09;;;;;;;;;1.00;1.00;;;;;11.91;70.79;100673.75;5058179;28;45519;-76
2023/01/13 02:47:38;;;;;;;;;0.67;0.33;;;;;11.90;70.42;100696.88;5058310;28;45349;-74
2023/01/13 02:50:29;;;;;;;;;3.00;1.00;;;;;12.01;70.75;100715.28;5057636;28;45612;-75
2023/01/13 02:53:00;;;;;;;;;0.00;0.00;;;;;11.32;70.42;100592.66;5058129;28;45376;-74
2023/01/13 02:55:33;;;;;;;;;2.00;0.00;;;;;11.97;71.13;100713.91;5058155;28;45324;-75
2023/01/13 02:58:00;;;;;;;;;1.00;1.00;;;;;11.66;70.54;100662.84;5058076;28;45557;-73
2023/01/13 03:00:28;;;;;;;;;0.67;0.00;;;;;11.48;71.24;100656.69;5057525;28;45637;-75
2023/01/13 03:02:53;;;;;;;;;2.33;0.00;;;;;11.72;71.08;100709.34;5057680;28;45246;-73
2023/01/13 03:05:19;;;;;;;;;1.00;1.00;;;;;11.26;70.98;100640.19;5057914;28;45508;-75
2023/01/13 03:08:01;;;;;;;;;2.00;0.33;;;;;11.78;70.80;100724.69;5039866;28;45312;-75
2023/01/13 03:10:51;;;;;;;;;1.33;1.00;;;;;11.73;70.81;100733.16;5057630;28;46328;-74
2023/01/13 03:13:54;;;;;;;;;3.00;1.00;;;;;11.09;70.94;100629.50;5057402;28;45408;-74
2023/01/13 03:16:34;;;;;;;;;0.00;0.00;;;;;11.76;70.88;100735.50;5042776;28;45301;-75
2023/01/13 03:19:27;;;;;;;;;3.33;1.00;;;;;11.79;71.04;100758.38;5076775;28;45502;-75
2023/01/13 03:22:00;;;;;;;;;1.00;0.00;;;;;11.49;71.01;100703.63;5077742;28;46687;-73
2023/01/13 03:24:43;;;;;;;;;2.00;0.00;;;;;10.87;70.79;100589.06;5076945;27;45579;-73
2023/01/13 03:27:22;;;;;;;;;0.67;0.00;;;;;11.81;69.98;100761.72;5076356;28;45536;-74
2023/01/13 03:30:08;;;;;;;;;2.33;1.00;;;;;11.84;70.54;100740.13;5077724;27;45315;-74
2023/01/13 03:32:44;;;;;;;;;1.00;1.00;;;;;11.84;70.46;100740.97;5093265;27;47339;-74
2023/01/13 03:35:22;;;;;;;;;2.00;1.00;;;;;11.65;69.48;100702.97;5077402;27;45556;-75
2023/01/13 03:38:06;;;;;;;;;1.00;1.00;;;;;11.94;70.24;100745.38;5077935;27;45216;-71
2023/01/13 03:40:40;;;;;;;;;1.00;1.00;;;;;11.12;69.67;100595.47;5076753;28;45538;-73
2023/01/13 03:46:02;;;;;;;;;1.33;1.33;;;;;11.86;68.90;100744.31;5077476;28;45270;-74
2023/01/13 03:48:32;;;;;;;;;2.33;1.00;;;;;11.70;69.25;100720.16;5093690;27;45355;-73
2023/01/13 03:51:05;;;;;;;;;2.00;1.00;;;;;11.95;69.29;100747.03;5078038;27;45496;-73
2023/01/13 03:53:38;;;;;;;;;0.33;0.33;;;;;11.39;68.49;100660.25;5077034;28;47397;-75
2023/01/13 03:56:11;;;;;;;;;2.00;0.67;;;;;11.87;68.82;100729.16;5093431;27;45517;-73
2023/01/13 03:58:42;;;;;;;;;1.33;1.00;;;;;11.84;68.95;100708.16;5077353;28;45308;-73
2023/01/13 04:01:15;;;;;;;;;2.00;1.00;;;;;11.07;67.94;100584.44;5093179;27;45361;-73
2023/01/13 04:03:49;;;;;;;;;1.00;1.00;;;;;11.96;68.34;100733.56;5077208;27;46797;-73
2023/01/13 04:07:00;;;;;;;;;2.67;1.00;;;;;11.99;68.76;100738.56;5077130;27;45311;-73
2023/01/13 04:09:37;;;;;;;;;1.33;0.00;;;;;11.81;68.35;100701.31;5076903;28;45311;-74
2023/01/13 04:12:12;;;;;;;;;1.67;1.33;;;;;11.96;67.92;100728.22;5077517;27;45294;-73
2023/01/13 04:14:38;;;;;;;;;0.67;0.67;;;;;11.78;67.38;100706.91;5076952;28;46490;-73
2023/01/13 04:17:04;;;;;;;;;1.00;0.00;;;;;11.00;67.47;100579.84;5067285;28;45338;-75
2023/01/13 04:19:31;;;;;;;;;1.33;0.00;;;;;12.04;67.74;100752.31;5057021;28;45285;-75
2023/01/13 04:21:57;;;;;;;;;2.00;0.00;;;;;12.10;67.40;100758.84;5057111;28;45348;-72
2023/01/13 04:24:23;;;;;;;;;6.00;6.00;;;;;12.03;67.16;100749.78;5056818;28;46146;-75
2023/01/13 04:26:49;;;;;;;;;0.00;0.00;;;;;11.63;67.23;100687.13;5038651;28;46186;-73
2023/01/13 04:29:14;;;;;;;;;0.00;0.00;;;;;11.90;67.17;100723.53;5039158;28;45412;-72
2023/01/13 04:31:40;;;;;;;;;1.00;0.00;;;;;11.96;66.82;100735.38;5061286;28;45598;-73
2023/01/13 04:34:05;;;;;;;;;2.00;0.00;;;;;11.73;67.02;100703.84;5061525;28;45691;-73
2023/01/13 04:36:31;;;;;;;;;0.00;0.00;;;;;11.76;66.92;100724.84;5058736;28;45297;-74
2023/01/13 04:38:56;;;;;;;;;1.00;0.67;;;;;12.07;67.04;100773.31;5042184;28;45692;-74
2023/01/13 04:41:21;;;;;;;;;0.00;0.00;;;;;11.81;66.49;100732.41;5042345;28;45523;-71
2023/01/13 04:43:47;;;;;;;;;0.00;0.00;;;;;11.97;65.97;100782.34;5060108;28;46733;-73
2023/01/13 04:46:12;;;;;;;;;0.00;0.00;;;;;11.97;66.43;100787.69;5059998;28;45324;-74
2023/01/13 04:48:37;;;;;;;;;0.67;0.67;;;;;11.15;66.23;100674.97;5059994;28;45257;-74
2023/01/13 04:51:03;;;;;;;;;0.00;0.00;;;;;11.64;66.02;100727.91;5042008;28;45742;-75
2023/01/13 04:53:28;;;;;;;;;2.00;1.00;;;;;11.89;65.23;100780.47;5059759;28;45459;-72
2023/01/13 04:55:54;;;;;;;;;0.00;0.00;;;;;11.73;65.48;100770.44;5041604;28;45382;-74
2023/01/13 04:58:20;;;;;;;;;1.00;1.00;;;;;11.52;65.07;100751.25;5041563;28;45415;-74
2023/01/13 05:00:45;;;;;;;;;1.00;1.00;;;;;11.79;65.54;100801.81;5060218;28;45357;-75
2023/01/13 05:03:11;;;;;;;;;0.67;0.67;;;;;11.56;65.33;100757.94;5058864;28;53380;-75
2023/01/13 05:05:36;;;;;;;;;0.00;0.00;;;;;11.52;65.23;100764.56;5059470;28;45763;-73
2023/01/13 05:08:02;;;;;;;;;0.00;0.00;;;;;11.34;65.44;100748.53;5041323;28;45389;-75
2023/01/13 05:10:28;;;;;;;;;2.00;1.00;;;;;11.63;64.89;100788.31;5059623;28;45623;-74
2023/01/13 05:18:26;;;;;;;;;1.00;1.00;;;;;11.39;65.90;100798.66;5059458;28;45419;-74
2023/01/13 05:20:52;;;;;;;;;0.00;0.00;;;;;11.31;66.38;100799.41;5059514;28;45412;-75
2023/01/13 05:26:01;;;;;;;;;0.00;0.00;;;;;11.03;66.21;100769.28;5059375;28;45253;-74
2023/01/13 05:28:34;;;;;;;;;1.67;0.00;;;;;11.27;66.03;100812.19;5059169;28;45478;-73
2023/01/13 05:30:59;;;;;;;;;1.33;1.33;;;;;11.05;66.66;100783.28;5059253;28;45453;-74
2023/01/13 05:33:25;;;;;;;;;2.33;1.00;;;;;10.79;66.29;100760.97;5059024;28;45361;-74
2023/01/13 05:35:50;;;;;;;;;1.00;1.00;;;;;11.15;66.40;100841.78;5057446;28;45397;-73
2023/01/13 05:38:16;;;;;;;;;2.33;1.00;;;;;11.13;66.62;100865.03;5059165;28;45799;-73
2023/01/13 05:43:26;;;;;;;;;3.00;1.33;;;;;11.10;67.08;100852.03;5059148;28;45345;-75
2023/01/13 05:45:56;;;;;;;;;1.00;1.00;;;;;11.10;66.64;100836.06;5058050;28;45367;-74
2023/01/13 05:48:24;;;;;;;;;0.00;0.00;;;;;11.08;67.10;100848.66;5042190;28;45342;-74
2023/01/13 05:50:50;;;;;;;;;2.00;1.00;;;;;11.02;66.92;100852.75;5042094;28;45384;-74
2023/01/13 05:53:17;;;;;;;;;2.67;1.00;;;;;10.65;66.90;100805.66;5040450;28;47037;-74
2023/01/13 05:55:43;;;;;;;;;1.67;1.00;;;;;10.86;66.88;100833.88;5058644;28;45359;-75
2023/01/13 05:58:10;;;;;;;;;1.33;1.00;;;;;10.32;66.50;100772.41;5058490;28;45558;-76
2023/01/13 06:00:36;;;;;;;;;1.33;0.33;;;;;10.92;66.50;100870.53;5058771;28;45365;-75
2023/01/13 06:03:02;;;;;;;;;3.00;2.00;;;;;10.84;66.82;100857.97;5056962;28;47137;-74
2023/01/13 06:05:28;;;;;;;;;4.00;1.67;;;;;10.59;66.79;100816.84;5058442;28;45478;-74
2023/01/13 06:07:57;;;;;;;;;0.33;0.33;;;;;10.87;66.04;100881.63;5058392;28;45395;-72
2023/01/13 06:10:23;;;;;;;;;1.00;1.00;;;;;10.69;66.48;100848.75;5058703;28;45543;-73
2023/01/13 06:12:48;;;;;;;;;3.00;1.00;;;;;10.46;66.22;100818.13;5058831;28;46817;-73
2023/01/13 06:15:14;;;;;;;;;4.67;1.00;;;;;10.85;66.71;100880.94;5058787;28;45236;-73
2023/01/13 06:17:39;;;;;;;;;2.33;1.00;;;;;10.83;66.52;100876.72;5065817;28;45319;-75
2023/01/13 06:20:07;;;;;;;;;1.33;1.33;;;;;10.84;66.24;100899.69;5076726;28;45281;-73
2023/01/13 06:22:34;;;;;;;;;2.00;2.00;;;;;10.64;66.10;100873.13;5078330;28;46517;-73
2023/01/13 06:25:00;;;;;;;;;0.33;0.33;;;;;10.69;66.37;100895.78;5077141;28;45521;-73
2023/01/13 06:27:27;;;;;;;;;4.00;0.33;;;;;10.57;66.22;100877.28;5077144;28;45412;-76
2023/01/13 06:29:55;;;;;;;;;1.00;0.67;;;;;10.42;66.45;100852.13;5078674;27;45397;-75
2023/01/13 06:32:25;;;;;;;;;3.00;2.00;;;;;10.74;66.78;100914.78;5076954;28;48407;-74
2023/01/13 06:34:58;;;;;;;;;4.67;2.33;;;;;10.02;65.97;100807.91;5092903;27;46079;-73
2023/01/13 06:37:27;;;;;;;;;1.67;1.33;;;;;10.23;66.06;100855.63;5060016;27;45584;-74
2023/01/13 06:39:57;;;;;;;;;1.67;1.67;;;;;10.62;66.13;100928.25;5058204;28;45286;-76
2023/01/13 06:45:13;;;;;;;;;2.00;1.00;;;;;10.06;66.35;100857.13;5047132;28;45518;-76
2023/01/13 06:47:39;;;;;;;;;4.33;3.00;;;;;10.40;66.23;100904.56;5057853;28;45422;-74
2023/01/13 06:50:05;;;;;;;;;4.00;2.67;;;;;9.57;66.35;100781.00;5064471;28;45561;-75
2023/01/13 06:52:30;;;;;;;;;2.33;2.00;;;;;10.22;66.07;100877.88;5076470;28;48558;-74
2023/01/13 06:54:56;;;;;;;;;7.00;2.00;;;;;10.20;65.81;100869.13;5077365;27;45312;-72
2023/01/13 06:57:22;;;;;;;;;1.67;1.67;;;;;10.61;66.04;100926.56;5078327;28;45407;-73
2023/01/13 06:59:47;;;;;;;;;2.00;2.00;;;;;10.47;65.83;100934.13;5076811;27;45532;-73
2023/01/13 07:02:13;;;;;;;;;2.00;2.00;;;;;10.47;66.07;100934.13;5060929;28;46632;-73
2023/01/13 07:04:38;;;;;;;;;2.00;0.33;;;;;10.29;66.16;100910.88;5061437;28;45323;-72
2023/01/13 07:07:03;;;;;;;;;2.00;2.00;;;;;9.88;66.08;100853.44;5056459;28;45850;-74
2023/01/13 07:09:29;;;;;;;;;1.67;1.67;;;;;10.59;65.93;100959.56;5057317;28;45494;-73
2023/01/13 07:11:54;;;;;;;;;3.67;1.67;;;;;10.22;66.05;100900.94;5057549;28;45534;-72
2023/01/13 07:17:03;;;;;;;;;3.00;3.00;;;;;10.48;66.05;100947.25;5067982;28;45454;-79
2023/01/13 07:19:28;;;;;;;;;4.33;3.67;;;;;10.41;66.05;100956.78;5039356;28;45563;-73
2023/01/13 07:21:54;;;;;;;;;6.00;2.00;;;;;10.20;66.39;100926.75;5047447;28;46186;-73
2023/01/13 07:24:21;;;;;;;;;3.33;2.33;;;;;10.48;66.25;100992.44;5020350;28;45418;-77
2023/01/13 07:26:47;;;;;;;;;1.33;1.33;;;;;10.30;66.61;100971.00;5041674;28;45479;-74
2023/01/13 07:29:12;;;;;;;;;3.00;2.00;;;;;7.93;66.43;100565.66;5042068;28;45257;-74
2023/01/13 07:31:38;;;;;;;;;3.67;1.67;;;;;10.48;66.92;100992.44;5038580;28;45610;-73
2023/01/13 07:34:05;;;;;;;;;4.00;2.00;;;;;10.45;66.82;100979.44;5038010;28;45496;-73
2023/01/13 07:36:30;;;;;;;;;4.00;3.00;;;;;10.20;66.84;100953.31;5019821;28;45288;-75
2023/01/13 07:38:55;;;;;;;;;3.67;2.67;;;;;10.12;67.08;100950.50;5037157;28;45203;-73
2023/01/13 07:44:05;;;;;;;;;2.00;1.00;;;;;10.30;67.10;100991.44;5036977;28;45413;-73
2023/01/13 07:46:32;;;;;;;;;7.67;7.00;;;;;10.24;67.25;100949.47;5036930;28;45365;-74
2023/01/13 07:48:57;;;;;;;;;5.00;4.00;;;;;10.31;67.42;100969.19;5037061;28;45293;-74
2023/01/13 07:51:23;;;;;;;;;4.00;1.67;;;;;10.21;67.07;100949.72;5018771;28;47367;-74
2023/01/13 07:53:48;;;;;;;;;4.67;4.00;;;;;10.55;66.92;101017.50;5052894;28;46111;-75
2023/01/13 07:56:14;;;;;;;;;2.67;1.00;;;;;10.09;67.00;100942.81;5037812;28;45447;-74
2023/01/13 07:58:43;;;;;;;;;2.00;1.00;;;;;10.50;67.47;101027.72;5040623;28;45441;-74
2023/01/13 08:01:11;;;;;;;;;3.00;3.00;;;;;10.44;67.42;101028.25;5044156;28;47804;-73
2023/01/13 08:03:37;;;;;;;;;1.67;0.67;;;;;9.72;67.50;100911.53;5055666;28;45186;-72
2023/01/13 08:06:03;;;;;;;;;5.00;3.00;;;;;10.48;67.56;101045.63;5039197;28;45659;-72
2023/01/13 08:08:28;;;;;;;;;4.33;3.67;;;;;10.27;67.89;101018.28;5036427;28;45515;-71
2023/01/13 08:10:53;;;;;;;;;8.33;1.00;;;;;10.50;67.67;101051.63;5023509;28;46529;-72
2023/01/13 08:13:19;;;;;;;;;2.00;2.00;;;;;9.86;67.80;100928.91;5060123;28;45459;-73
2023/01/13 08:15:48;;;;;;;;;4.67;2.67;;;;;10.58;67.79;101040.31;5060305;28;45415;-76
2023/01/13 08:18:14;;;;;;;;;4.00;2.67;;;;;10.45;67.69;101029.09;5049741;28;45434;-74
2023/01/13 08:20:40;;;;;;;;;7.67;4.33;;;;;10.12;68.10;100974.44;5039830;28;46309;-74
2023/01/13 08:23:06;;;;;;;;;2.67;2.00;;;;;10.49;67.80;101047.28;5039868;28;45458;-75
2023/01/13 08:25:32;;;;;;;;;4.33;2.67;;;;;10.62;67.60;101055.88;5023274;28;45482;-72
2023/01/13 08:27:59;;;;;;;;;2.33;2.33;;;;;10.37;67.51;101013.81;5059647;28;51177;-72
2023/01/13 08:30:25;;;;;;;;;5.00;1.67;;;;;10.70;67.42;101067.63;5060067;28;45867;-78
2023/01/13 08:32:50;;;;;;;;;3.67;3.00;;;;;10.03;67.58;100963.66;5041662;28;45378;-73
2023/01/13 08:35:16;;;;;;;;;3.00;1.33;;;;;10.66;67.38;101057.28;5022830;28;45468;-72
2023/01/13 08:37:43;;;;;;;;;2.33;2.00;;;;;10.44;67.42;101006.16;5039603;28;45547;-74
2023/01/13 08:40:10;;;;;;;;;21.33;19.33;;;;;10.84;66.70;101043.31;5038749;28;46409;-76
2023/01/13 08:42:36;;;;;;;;;25.67;20.67;;;;;8.27;66.94;100618.38;5036768;28;45443;-71
2023/01/13 08:45:02;;;;;;;;;2.00;2.00;;;;;10.56;66.39;101005.88;5037151;28;45563;-72
2023/01/13 08:47:27;;;;;;;;;5.33;2.00;;;;;10.88;66.10;101031.41;5052704;28;45489;-72
2023/01/13 08:49:53;;;;;;;;;3.00;2.33;;;;;11.25;65.30;101090.94;5059759;28;45887;-73
2023/01/13 08:52:19;;;;;;;;;6.00;3.33;;;;;11.41;65.71;101081.53;5026996;28;45420;-75
2023/01/13 08:54:45;;;;;;;;;3.00;3.00;;;;;11.62;65.12;101084.06;5046540;28;45384;-72
2023/01/13 08:57:10;;;;;;;;;4.67;2.00;;;;;11.78;63.48;101071.84;5039585;28;45393;-73
2023/01/13 08:59:36;;;;;;;;;7.33;5.00;;;;;12.02;63.37;101073.22;5039423;28;46114;-74
2023/01/13 09:02:03;;;;;;;;;2.67;2.67;;;;;12.07;61.98;101017.66;5039385;28;45729;-73
2023/01/13 09:04:29;;;;;;;;;8.67;4.67;;;;;12.86;60.24;101089.91;5039563;28;45380;-75
2023/01/13 09:06:55;;;;;;;;;2.67;2.67;;;;;12.91;58.36;100972.88;5032469;28;45328;-72
2023/01/13 09:09:21;;;;;;;;;3.33;2.00;;;;;13.81;56.32;100989.56;5062238;28;45975;-74
2023/01/13 09:14:36;;;;;;;;;3.00;3.00;;;;;15.26;52.22;100940.06;5039916;28;45365;-75
2023/01/13 09:17:02;;;;;;;;;2.00;2.00;;;;;15.69;50.02;100938.00;5050948;28;45445;-75
2023/01/13 09:19:28;;;;;;;;;3.33;3.33;;;;;16.67;48.21;101013.53;5041915;28;47088;-72
2023/01/13 09:21:55;;;;;;;;;3.00;1.33;;;;;16.72;48.36;101071.03;5021371;28;45264;-74
2023/01/13 09:24:21;;;;;;;;;3.33;3.33;;;;;16.23;48.89;101094.53;5053895;28;45547;-75
2023/01/13 09:26:46;;;;;;;;;7.00;6.00;;;;;15.68;50.59;101089.94;5043143;28;45324;-75
2023/01/13 09:29:12;;;;;;;;;3.00;3.00;;;;;15.10;51.08;101088.19;5039002;28;45571;-73
2023/01/13 09:31:38;;;;;;;;;7.00;3.00;;;;;14.81;52.35;101112.72;5042955;28;45812;-74
2023/01/13 09:37:06;;;;;;;;;0.00;0.00;;;;;14.10;53.24;101064.91;5005533;28;45474;-74
2023/01/13 09:39:33;;;;;;;;;4.33;3.33;;;;;14.19;54.28;101122.78;5030230;28;45768;-74
2023/01/13 09:45:16;;;;;;;;;4.00;2.33;;;;;13.88;54.81;101145.63;5056148;28;45433;-73
2023/01/13 09:47:52;;;;;;;;;4.00;0.67;;;;;13.83;55.09;101134.56;5043775;28;45151;-73
2023/01/13 09:50:33;;;;;;;;;3.00;2.67;;;;;13.70;55.45;101102.91;5045809;28;46484;-76
2023/01/13 09:52:59;;;;;;;;;2.00;1.33;;;;;13.00;55.10;101013.81;5040177;28;45519;-73
2023/01/13 09:55:35;;;;;;;;;2.00;1.33;;;;;13.65;55.02;101140.78;5059110;28;45547;-74
2023/01/13 09:58:10;;;;;;;;;2.50;0.50;;;;;13.21;55.11;101083.78;5042516;28;45569;-75
2023/01/13 10:00:43;;;;;;;;;4.67;1.67;;;;;13.37;55.52;101121.31;5021519;28;47439;-75
2023/01/13 10:03:19;;;;;;;;;2.33;2.00;;;;;12.72;55.44;101042.41;5039570;28;45526;-75
2023/01/13 10:05:44;;;;;;;;;5.33;3.33;;;;;13.29;56.24;101149.78;5039746;28;45325;-76
2023/01/13 10:08:26;;;;;;;;;3.67;2.00;;;;;11.33;55.63;100863.16;5030741;28;45440;-74
2023/01/13 10:10:55;;;;;;;;;2.00;2.00;;;;;13.23;55.90;101155.75;5022065;28;46599;-74
2023/01/13 10:13:27;;;;;;;;;5.00;1.00;;;;;12.99;55.83;101105.53;5038830;28;45328;-75
2023/01/13 10:16:05;;;;;;;;;2.00;2.00;;;;;13.23;55.18;101155.75;5039956;28;45479;-77
2023/01/13 10:19:10;;;;;;;;;4.67;3.33;;;;;13.06;55.20;101171.53;5078366;28;45529;-74
2023/01/13 10:21:38;;;;;;;;;4.00;2.00;;;;;12.56;56.12;101087.56;5078338;28;46380;-73
2023/01/13 10:24:32;;;;;;;;;2.00;2.00;;;;;12.93;55.84;101171.03;5060151;28;45486;-74
2023/01/13 10:27:04;;;;;;;;;3.00;1.33;;;;;12.36;56.38;101108.97;5021016;28;45510;-74
2023/01/13 10:29:30;;;;;;;;;2.00;1.67;;;;;12.88;56.62;101183.16;5039920;28;45368;-75
2023/01/13 10:31:58;;;;;;;;;17.33;11.00;;;;;12.85;56.86;101178.13;5058113;28;46444;-76
2023/01/13 10:34:25;;;;;;;;;5.00;1.00;;;;;12.85;56.76;101172.78;5072746;28;45319;-76
2023/01/13 10:36:56;;;;;;;;;2.00;2.00;;;;;12.84;56.97;101171.94;5041272;28;45361;-74
2023/01/13 10:39:21;;;;;;;;;8.00;5.33;;;;;12.60;57.08;101136.94;5039825;28;45588;-75
2023/01/13 10:41:47;;;;;;;;;6.67;5.00;;;;;12.48;57.36;101118.47;5057415;28;45858;-78
2023/01/13 10:44:15;;;;;;;;;15.00;14.67;;;;;12.69;57.06;101157.41;5040176;28;45740;-75
2023/01/13 10:46:54;;;;;;;;;7.00;2.00;;;;;12.91;57.22;101181.03;5040643;28;45351;-76
2023/01/13 10:49:40;;;;;;;;;9.00;8.00;;;;;12.98;56.98;101195.44;5072152;28;45570;-74
2023/01/13 10:52:25;;;;;;;;;11.33;8.33;;;;;12.20;57.07;101074.09;5059474;28;45534;-77
2023/01/13 10:54:52;;;;;;;;;2.33;2.00;;;;;12.14;56.94;101070.19;5039150;28;45554;-77
2023/01/13 10:57:19;;;;;;;;;4.33;2.00;;;;;12.76;56.80;101217.19;5046840;28;45542;-73
2023/01/13 10:59:47;;;;;;;;;5.00;5.00;;;;;12.02;57.59;101103.38;5078025;28;45363;-77
2023/01/13 11:02:17;;;;;;;;;3.67;1.67;;;;;12.75;57.70;101226.19;5071156;27;45566;-76
2023/01/13 11:04:54;;;;;;;;;2.50;1.50;;;;;12.45;57.53;101188.13;5048343;28;45571;-75
2023/01/13 11:07:29;;;;;;;;;5.00;2.00;;;;;12.65;57.96;101198.72;5073518;28;45513;-78
2023/01/13 11:10:08;;;;;;;;;2.67;1.00;;;;;12.94;57.94;101236.78;5078522;28;45474;-75
2023/01/13 11:12:42;;;;;;;;;4.00;2.00;;;;;12.69;58.05;101194.75;5068931;28;45710;-75
2023/01/13 11:15:15;;;;;;;;;2.00;1.00;;;;;12.85;57.14;101231.50;5040028;28;45415;-74
2023/01/13 11:17:47;;;;;;;;;3.00;1.00;;;;;12.66;57.63;101203.06;5041794;28;45345;-77
2023/01/13 11:20:31;;;;;;;;;4.00;2.00;;;;;12.94;57.78;101247.44;5036263;28;45445;-76
2023/01/13 11:23:00;;;;;;;;;2.00;2.00;;;;;11.90;57.75;101058.38;5037794;28;45483;-74
2023/01/13 11:25:34;;;;;;;;;5.67;3.00;;;;;12.91;57.21;101237.06;5037842;28;45261;-75
2023/01/13 11:28:24;;;;;;;;;52.67;42.67;;;;;13.00;57.81;101240.69;5034371;28;45599;-75
2023/01/13 11:31:11;;;;;;;;;3.00;1.33;;;;;12.28;57.25;101126.69;5035421;28;45669;-75
2023/01/13 11:33:43;;;;;;;;;0.67;0.33;;;;;12.94;57.43;101252.78;5035740;28;47264;-75
2023/01/13 11:36:29;;;;;;;;;4.67;2.33;;;;;12.98;57.23;101253.34;5057350;28;45513;-75
2023/01/13 11:39:02;;;;;;;;;5.00;3.67;;;;;12.29;57.42;101137.22;5038157;28;45415;-76
2023/01/13 11:41:42;;;;;;;;;9.67;4.67;;;;;12.89;57.51;101238.22;5057473;28;45601;-73
2023/01/13 11:44:16;;;;;;;;;13.33;12.33;;;;;10.31;57.11;100807.09;5037291;28;45264;-76
2023/01/13 11:46:41;;;;;;;;;4.67;4.00;;;;;12.16;56.40;101110.88;5024360;28;46484;-75
2023/01/13 11:49:17;;;;;;;;;4.00;4.00;;;;;13.09;56.49;101266.50;5025681;28;45428;-73
2023/01/13 11:51:54;;;;;;;;;6.33;3.67;;;;;13.08;56.45;101254.16;5044268;28;45488;-75
2023/01/13 11:54:41;;;;;;;;;4.00;3.00;;;;;13.12;55.76;101260.03;5042521;28;47625;-75
2023/01/13 11:57:26;;;;;;;;;7.00;4.00;;;;;13.11;55.43;101253.84;5025705;28;45501;-73
2023/01/13 12:00:11;;;;;;;;;2.33;2.00;;;;;13.01;55.30;101253.91;5043863;28;45426;-75
2023/01/13 12:02:57;;;;;;;;;4.00;4.00;;;;;12.68;55.18;101193.09;5044883;28;45177;-75
2023/01/13 12:05:30;;;;;;;;;4.67;4.00;;;;;12.95;54.38;101233.13;5027685;28;47473;-76
2023/01/13 12:08:26;;;;;;;;;48.00;31.67;;;;;13.21;54.86;101269.84;5044860;28;45447;-73
2023/01/13 12:11:10;;;;;;;;;6.67;5.00;;;;;13.18;53.52;101259.44;5044737;28;45540;-73
2023/01/13 12:13:57;;;;;;;;;11.67;8.67;;;;;13.03;53.93;101230.56;5045088;28;45443;-75
2023/01/13 12:16:23;;;;;;;;;15.67;11.33;;;;;13.20;53.20;101238.78;5044282;28;45586;-73
2023/01/13 12:19:06;;;;;;;;;23.33;16.67;;;;;13.18;53.34;101249.63;5044305;28;45432;-73